Time;durP1;ratioP1;P1;durP2;ratioP2;P2;SDS_P1;SDS_P2;PMS_P1;PMS_P2;Temp;Humidity;BMP_temperature;BMP_pressure;BME280_temperature;BME280_humidity;BME280_pressure;Samples;Min_cycle;Max_cycle;Signal;HPM_P1;HPM_P2
2023/04/24 00:00:42;;;;;;;15.35;6.03;;;;;;;17.08;80.15;100707.97;12786525;22;99211;-77
2023/04/24 00:05:45;;;;;;;12.02;5.75;;;;;;;17.10;80.67;100714.06;12789310;22;98951;-77
2023/04/24 00:10:48;;;;;;;12.52;5.97;;;;;;;17.17;80.45;100707.44;12788700;22;99193;-77
2023/04/24 00:15:53;;;;;;;10.23;5.78;;;;;;;17.14;79.99;100710.25;12788830;22;97718;-77
2023/04/24 00:20:56;;;;;;;14.80;5.72;;;;;;;17.21;80.20;100713.44;12782689;22;99024;-77
2023/04/24 00:25:59;;;;;;;13.57;5.80;;;;;;;17.20;80.02;100722.34;12788687;22;98997;-76
2023/04/24 00:31:04;;;;;;;12.20;5.43;;;;;;;17.14;80.42;100723.56;12789514;22;97907;-77
2023/04/24 00:36:08;;;;;;;9.77;5.70;;;;;;;17.11;80.42;100718.44;12788952;22;98976;-77
2023/04/24 00:41:12;;;;;;;9.27;5.55;;;;;;;17.13;80.23;100719.19;12790179;22;99169;-77
2023/04/24 00:46:17;;;;;;;13.67;6.57;;;;;;;17.14;80.12;100714.75;12789078;22;98895;-76
2023/04/24 00:51:21;;;;;;;14.00;6.65;;;;;;;17.09;80.47;100711.50;12785765;22;98955;-79
2023/04/24 00:56:24;;;;;;;13.20;6.43;;;;;;;17.15;80.03;100713.78;12789362;22;98962;-79
2023/04/24 01:01:30;;;;;;;8.90;6.38;;;;;;;17.16;80.34;100705.72;12789653;22;98882;-79
2023/04/24 01:06:34;;;;;;;12.65;6.18;;;;;;;17.13;80.85;100708.56;12788322;22;98836;-79
2023/04/24 01:11:38;;;;;;;15.93;6.53;;;;;;;17.08;80.76;100701.78;12786977;22;98974;-78
2023/04/24 01:16:43;;;;;;;10.82;6.15;;;;;;;17.05;80.80;100709.00;12792265;22;99181;-78
2023/04/24 01:21:48;;;;;;;;;;;;;;;16.92;81.48;100707.16;12793127;22;98843;-78
2023/04/24 01:26:53;;;;;;;14.05;5.55;;;;;;;16.97;81.13;100703.28;12792690;22;99429;-79
2023/04/24 01:31:58;;;;;;;;;;;;;;;16.96;81.19;100709.53;12792302;22;98685;-79
2023/04/24 01:37:02;;;;;;;40.03;7.68;;;;;;;16.87;80.95;100703.91;12792056;22;97826;-79
2023/04/24 01:42:08;;;;;;;70.70;9.70;;;;;;;16.81;81.53;100686.50;12792071;22;98849;-79
2023/04/24 01:47:11;;;;;;;9.43;5.78;;;;;;;16.70;82.48;100680.13;12791510;22;99164;-79
2023/04/24 01:52:14;;;;;;;10.60;5.32;;;;;;;16.68;82.38;100677.56;12790754;22;99547;-79
2023/04/24 01:57:19;;;;;;;9.35;4.63;;;;;;;16.57;82.66;100666.69;12792169;22;99384;-78
2023/04/24 02:02:23;;;;;;;;;;;;;;;16.54;82.44;100658.03;12791354;22;98907;-78
2023/04/24 02:07:27;;;;;;;8.23;3.85;;;;;;;16.55;81.96;100651.78;12792585;22;97973;-78
2023/04/24 02:12:32;;;;;;;7.30;3.40;;;;;;;16.52;81.85;100643.97;12791971;22;99301;-79
2023/04/24 02:17:35;;;;;;;5.93;3.13;;;;;;;16.50;81.66;100644.06;12791892;22;98346;-78
2023/04/24 02:22:38;;;;;;;6.68;2.65;;;;;;;16.44;81.41;100648.88;12792448;22;98809;-79
2023/04/24 02:27:43;;;;;;;4.90;2.60;;;;;;;16.51;80.87;100652.91;12791141;22;99380;-79
2023/04/24 02:32:46;;;;;;;4.90;2.92;;;;;;;16.37;81.56;100661.63;12788445;22;98923;-78
2023/04/24 02:37:49;;;;;;;6.47;3.38;;;;;;;16.37;81.76;100666.94;12792112;22;99087;-75
2023/04/24 02:42:54;;;;;;;6.88;3.40;;;;;;;16.38;81.66;100665.97;12790559;22;99005;-76
2023/04/24 02:47:57;;;;;;;5.68;3.50;;;;;;;16.44;81.31;100676.31;12790836;22;99182;-77
2023/04/24 02:53:01;;;;;;;8.30;3.28;;;;;;;16.48;80.98;100674.34;12790842;22;99322;-77
2023/04/24 02:58:05;;;;;;;4.70;3.20;;;;;;;16.45;81.40;100648.78;12791595;22;98898;-77
2023/04/24 03:03:09;;;;;;;6.57;3.10;;;;;;;16.48;81.35;100632.66;12791681;22;99245;-78
2023/04/24 03:08:14;;;;;;;5.88;3.22;;;;;;;16.44;80.98;100636.47;12792739;22;98524;-77
2023/04/24 03:13:19;;;;;;;6.63;3.60;;;;;;;16.40;80.59;100631.41;12790816;22;99258;-78
2023/04/24 03:18:22;;;;;;;5.82;2.90;;;;;;;16.29;80.71;100634.63;12792065;22;99429;-77
2023/04/24 03:23:25;;;;;;;5.72;3.40;;;;;;;16.25;81.26;100637.56;12789733;22;99091;-78
2023/04/24 03:28:30;;;;;;;6.32;3.80;;;;;;;16.14;81.07;100643.47;12792730;22;98805;-78
2023/04/24 03:33:33;;;;;;;7.95;4.07;;;;;;;16.17;81.52;100640.63;12792428;22;99186;-77
2023/04/24 03:38:36;;;;;;;9.70;3.65;;;;;;;16.15;81.27;100645.16;12792168;22;99231;-78
2023/04/24 03:43:41;;;;;;;5.65;3.35;;;;;;;16.11;81.33;100656.91;12790859;22;98914;-77
2023/04/24 03:48:44;;;;;;;8.60;3.20;;;;;;;16.07;81.20;100657.16;12791817;22;98412;-78
2023/04/24 03:53:48;;;;;;;7.25;3.10;;;;;;;16.05;81.27;100659.06;12790916;22;98537;-78
2023/04/24 03:58:52;;;;;;;4.80;2.33;;;;;;;16.03;81.54;100656.47;12791670;22;99132;-77
2023/04/24 04:03:56;;;;;;;7.35;3.22;;;;;;;16.08;81.13;100658.88;12790705;22;99224;-77
2023/04/24 04:09:00;;;;;;;5.30;3.08;;;;;;;16.09;81.51;100666.78;12789977;22;99180;-77
2023/04/24 04:14:05;;;;;;;5.20;3.40;;;;;;;16.24;81.03;100662.41;12789426;22;98925;-77
2023/04/24 04:19:08;;;;;;;6.35;2.85;;;;;;;16.15;81.23;100665.56;12790919;22;97976;-77
2023/04/24 04:24:11;;;;;;;6.50;3.30;;;;;;;16.32;81.51;100665.47;12790047;22;98889;-77
2023/04/24 04:29:16;;;;;;;8.88;3.50;;;;;;;16.29;81.04;100663.00;12790604;22;99069;-79
2023/04/24 04:34:20;;;;;;;4.50;2.58;;;;;;;16.41;81.12;100657.03;12788167;22;98934;-79
2023/04/24 04:39:24;;;;;;;5.18;3.30;;;;;;;16.40;81.19;100655.28;12790953;22;99339;-79
2023/04/24 04:44:30;;;;;;;6.75;3.35;;;;;;;16.38;81.11;100650.03;12788298;22;98912;-79
2023/04/24 04:49:34;;;;;;;4.47;3.67;;;;;;;16.35;81.25;100658.19;12791551;22;99271;-79
2023/04/24 04:54:37;;;;;;;8.47;3.60;;;;;;;16.29;81.23;100665.66;12788678;22;99339;-79
2023/04/24 04:59:42;;;;;;;7.47;3.50;;;;;;;16.20;81.94;100674.13;12792838;22;98965;-79
2023/04/24 05:04:46;;;;;;;7.68;3.60;;;;;;;16.14;81.91;100669.16;12789561;22;99035;-77
2023/04/24 05:09:51;;;;;;;9.13;4.00;;;;;;;16.15;81.87;100661.09;12789671;22;99061;-77
2023/04/24 05:14:55;;;;;;;9.40;3.97;;;;;;;16.24;81.47;100663.25;12792048;22;98989;-76
2023/04/24 05:19:59;;;;;;;8.02;4.53;;;;;;;16.29;81.46;100670.97;12791229;22;98977;-76
2023/04/24 05:25:02;;;;;;;6.68;4.20;;;;;;;16.26;81.52;100673.78;12791965;22;99190;-77
2023/04/24 05:30:09;;;;;;;7.57;3.95;;;;;;;16.22;81.80;100666.94;12791355;22;98903;-77
2023/04/24 05:35:12;;;;;;;7.80;3.85;;;;;;;16.17;81.81;100674.31;12787637;22;98978;-77
2023/04/24 05:40:16;;;;;;;8.25;4.35;;;;;;;16.22;81.73;100681.06;12794334;22;98964;-78
2023/04/24 05:45:20;;;;;;;7.47;4.20;;;;;;;16.21;81.80;100689.13;12791754;22;98972;-77
2023/04/24 05:50:24;;;;;;;6.38;3.78;;;;;;;16.26;81.69;100687.91;12792760;22;98934;-77
2023/04/24 05:55:28;;;;;;;7.05;4.57;;;;;;;16.27;82.15;100700.25;12788393;22;99026;-76
2023/04/24 06:00:33;;;;;;;5.50;3.95;;;;;;;16.31;82.02;100699.13;12791893;22;99383;-77
2023/04/24 06:05:37;;;;;;;8.27;4.32;;;;;;;16.33;82.01;100704.38;12790136;22;98989;-78
2023/04/24 06:10:41;;;;;;;8.25;4.30;;;;;;;16.37;81.48;100709.44;12790133;22;96967;-78
2023/04/24 06:15:46;;;;;;;6.93;4.00;;;;;;;16.26;81.92;100703.84;12791857;22;99240;-77
2023/04/24 06:20:49;;;;;;;7.60;4.43;;;;;;;16.36;81.61;100704.22;12789826;22;98827;-78
2023/04/24 06:25:53;;;;;;;9.05;4.72;;;;;;;16.29;82.05;100706.34;12787853;22;98025;-78
2023/04/24 06:31:03;;;;;;;8.43;4.57;;;;;;;16.32;82.41;100710.63;12793185;22;98220;-78
2023/04/24 06:36:07;;;;;;;38.38;5.78;;;;;;;16.29;82.26;100719.59;12792629;22;98944;-78
2023/04/24 06:41:11;;;;;;;6.13;4.13;;;;;;;16.37;81.97;100735.13;12788639;22;98218;-78
2023/04/24 06:46:16;;;;;;;6.38;3.95;;;;;;;16.47;81.62;100752.28;12790896;22;98865;-79
2023/04/24 06:51:19;;;;;;;4.72;3.45;;;;;;;16.50;82.24;100745.00;12792452;22;98009;-78
2023/04/24 06:56:23;;;;;;;5.72;4.50;;;;;;;16.53;81.68;100747.50;12792400;22;99347;-79
2023/04/24 10:45:17;;;;;;;12.68;6.03;;;;;;;23.45;60.89;100786.56;10391785;28;97252;-77
2023/04/24 10:50:20;;;;;;;11.98;7.53;;;;;;;23.40;61.31;100778.88;10361778;28;98753;-77
2023/04/24 10:55:48;;;;;;;17.53;9.03;;;;;;;22.91;60.37;100775.03;10372064;28;96800;-78
2023/04/24 11:00:59;;;;;;;16.45;11.82;;;;;;;23.36;59.61;100777.44;10355633;28;96851;-77
2023/04/24 11:06:04;;;;;;;16.30;11.35;;;;;;;23.28;59.47;100763.81;10368610;28;99068;-77
2023/04/24 11:11:11;;;;;;;14.02;9.45;;;;;;;22.96;58.97;100762.94;10369764;28;96832;-76
2023/04/24 11:16:22;;;;;;;16.38;10.60;;;;;;;23.07;59.98;100764.72;10372046;28;97021;-77
2023/04/24 11:21:26;;;;;;;12.85;7.18;;;;;;;23.39;56.85;100760.22;10367085;28;96784;-77
2023/04/24 11:26:32;;;;;;;14.32;7.65;;;;;;;23.01;57.56;100758.03;10368195;28;96846;-77
2023/04/24 11:31:38;;;;;;;11.20;7.22;;;;;;;22.80;59.32;100748.22;10367693;28;96849;-76
2023/04/24 11:36:44;;;;;;;15.95;9.43;;;;;;;22.47;59.12;100765.22;10365963;28;97298;-76
2023/04/24 11:41:47;;;;;;;14.65;9.30;;;;;;;21.97;61.31;100763.00;10379993;28;99281;-87
2023/04/24 11:46:52;;;;;;;16.38;10.00;;;;;;;21.93;61.14;100769.56;10372728;28;96957;-80
2023/04/24 11:51:56;;;;;;;16.77;10.32;;;;;;;21.97;61.23;100766.50;10389658;28;96924;-80
2023/04/24 11:57:06;;;;;;;11.98;6.63;;;;;;;22.05;59.06;100772.16;10336225;28;97184;-80
2023/04/24 12:02:21;;;;;;;20.23;11.73;;;;;;;22.04;59.66;100756.22;10339286;28;96880;-79
2023/04/24 12:07:25;;;;;;;24.50;13.68;;;;;;;22.14;61.03;100762.53;10332088;28;96880;-78
2023/04/24 12:12:29;;;;;;;11.27;6.70;;;;;;;22.08;59.60;100752.28;10339062;28;98452;-78
2023/04/24 12:17:36;;;;;;;8.73;4.55;;;;;;;22.31;59.08;100749.50;10330393;28;96773;-77
2023/04/24 12:22:46;;;;;;;7.35;4.05;;;;;;;22.34;59.64;100749.25;10362241;28;97689;-76
2023/04/24 12:27:54;;;;;;;6.60;3.60;;;;;;;22.40;58.54;100748.75;10340900;28;97757;-76
2023/04/24 12:33:01;;;;;;;7.65;3.70;;;;;;;22.83;58.43;100746.16;10321606;28;97503;-76
2023/04/24 12:38:08;;;;;;;5.55;3.60;;;;;;;23.06;57.93;100737.03;10347318;28;99578;-75
2023/04/24 12:43:16;;;;;;;7.07;4.40;;;;;;;23.37;56.71;100719.19;10348123;28;96864;-76
2023/04/24 12:48:22;;;;;;;6.43;3.92;;;;;;;23.37;56.18;100716.50;10336126;28;100151;-75
2023/04/24 12:53:26;;;;;;;10.55;4.70;;;;;;;23.49;55.64;100713.59;10325826;28;98689;-76
2023/04/24 12:58:29;;;;;;;7.65;4.93;;;;;;;23.89;54.38;100704.84;10339915;28;96731;-76
2023/04/24 13:03:34;;;;;;;7.13;4.13;;;;;;;23.98;53.43;100702.19;10340431;28;96826;-78
2023/04/24 13:08:37;;;;;;;5.20;3.38;;;;;;;24.40;50.78;100701.09;10339349;28;96939;-76
2023/04/24 13:13:40;;;;;;;5.20;3.00;;;;;;;24.14;51.34;100699.84;10337536;28;96898;-75
2023/04/24 13:18:45;;;;;;;8.32;4.25;;;;;;;24.36;52.59;100690.75;10334989;28;98614;-75
2023/04/24 13:23:49;;;;;;;6.40;3.80;;;;;;;24.30;51.92;100676.03;10340091;28;96735;-76
2023/04/24 13:28:52;;;;;;;7.43;4.47;;;;;;;24.32;51.89;100668.66;10340663;28;96816;-76
2023/04/24 13:33:57;;;;;;;5.22;3.95;;;;;;;24.36;53.17;100664.69;10337909;28;96774;-76
2023/04/24 13:39:00;;;;;;;6.50;3.72;;;;;;;24.16;53.47;100664.75;10337593;28;97144;-76
2023/04/24 13:44:03;;;;;;;8.20;5.93;;;;;;;24.08;53.79;100656.53;10338468;28;96781;-76
2023/04/24 13:49:08;;;;;;;8.02;3.33;;;;;;;24.38;52.65;100653.78;10339258;28;96748;-76
2023/04/24 13:54:11;;;;;;;7.43;3.55;;;;;;;24.52;51.62;100639.94;10335345;28;96909;-75
2023/04/24 13:59:17;;;;;;;5.97;3.10;;;;;;;24.59;51.31;100631.16;10329979;28;99212;-77
2023/04/24 14:04:24;;;;;;;7.57;3.17;;;;;;;24.54;51.85;100627.19;10329333;28;99126;-76
2023/04/24 14:09:28;;;;;;;7.05;3.70;;;;;;;24.49;52.14;100624.94;10339552;28;96658;-75
2023/04/24 14:14:31;;;;;;;5.27;3.00;;;;;;;24.59;51.27;100617.72;10338791;28;97580;-76
2023/04/24 14:19:35;;;;;;;7.20;3.67;;;;;;;24.43;52.43;100621.94;10338236;28;96775;-75
2023/04/24 14:24:39;;;;;;;6.07;3.72;;;;;;;24.31;52.37;100613.16;10327716;28;97074;-76
2023/04/24 14:29:42;;;;;;;5.67;3.30;;;;;;;24.48;51.78;100606.25;10333805;28;97645;-75
2023/04/24 14:34:46;;;;;;;6.33;3.73;;;;;;;24.52;52.29;100596.88;10338605;28;96721;-75
2023/04/24 14:39:49;;;;;;;5.25;3.00;;;;;;;24.45;50.75;100588.53;10338890;28;96564;-76
2023/04/24 14:45:12;;;;;;;5.80;3.15;;;;;;;24.26;50.18;100576.84;10337637;28;97428;-75
2023/04/24 14:50:17;;;;;;;6.17;3.43;;;;;;;24.42;49.87;100570.00;10333750;28;98889;-76
2023/04/24 14:55:21;;;;;;;8.18;3.67;;;;;;;24.53;50.18;100571.69;10322894;28;98758;-75
2023/04/24 15:00:24;;;;;;;4.17;2.80;;;;;;;24.34;49.77;100569.00;10327072;28;98504;-77
2023/04/24 15:05:30;;;;;;;10.63;7.22;;;;;;;24.64;50.08;100567.00;10328130;28;99257;-78
2023/04/24 15:10:33;;;;;;;7.15;4.10;;;;;;;24.64;50.08;100558.06;10331552;28;96857;-78
2023/04/24 15:15:37;;;;;;;6.38;3.20;;;;;;;24.56;50.61;100558.81;10335310;28;96859;-78
2023/04/24 15:20:42;;;;;;;4.47;2.43;;;;;;;24.53;50.04;100577.06;10349732;28;96826;-78
2023/04/24 15:25:45;;;;;;;6.75;3.00;;;;;;;24.02;50.49;100561.13;10328948;28;97753;-78
2023/04/24 15:30:48;;;;;;;5.33;2.33;;;;;;;24.11;50.82;100565.66;10341601;28;98983;-77
2023/04/24 15:35:53;;;;;;;4.07;2.53;;;;;;;24.19;50.30;100562.25;10341582;28;97155;-77
2023/04/24 15:40:56;;;;;;;5.13;2.63;;;;;;;24.26;50.22;100572.34;10343851;28;96961;-78
2023/04/24 15:45:59;;;;;;;6.00;3.10;;;;;;;23.95;51.07;100573.41;10372024;28;98589;-77
2023/04/24 15:51:04;;;;;;;6.17;3.07;;;;;;;23.85;51.32;100583.28;10342767;28;98818;-77
2023/04/24 15:56:07;;;;;;;6.15;3.47;;;;;;;23.93;51.71;100591.50;10360011;28;96837;-77
2023/04/24 16:01:10;;;;;;;6.63;3.50;;;;;;;23.90;51.91;100585.56;10365586;28;96614;-77
2023/04/24 16:06:15;;;;;;;6.33;3.17;;;;;;;23.73;52.08;100583.53;10357946;28;97089;-76
2023/04/24 16:11:19;;;;;;;5.03;2.85;;;;;;;23.54;52.62;100592.38;10350156;28;97612;-76
2023/04/24 16:16:23;;;;;;;7.40;3.80;;;;;;;23.49;52.59;100598.09;10381893;28;96920;-76
2023/04/24 16:21:27;;;;;;;;;;;;;;;23.35;53.67;100598.47;10345351;28;96934;-77
2023/04/24 16:26:30;;;;;;;7.37;4.30;;;;;;;23.43;53.23;100603.16;10347973;28;97100;-76
2023/04/24 16:31:33;;;;;;;9.38;4.50;;;;;;;23.41;54.68;100599.75;10344215;28;97288;-76
2023/04/24 16:36:38;;;;;;;7.13;4.05;;;;;;;23.16;54.62;100608.25;10336082;28;97837;-76
2023/04/24 16:41:41;;;;;;;7.18;3.35;;;;;;;22.99;54.87;100598.09;10335362;28;96909;-76
2023/04/24 16:46:45;;;;;;;5.72;2.85;;;;;;;22.87;54.69;100605.34;10349505;28;96912;-76
2023/04/24 16:51:49;;;;;;;8.33;3.53;;;;;;;22.94;55.15;100595.78;10365090;28;98538;-76
2023/04/24 16:56:53;;;;;;;5.85;3.05;;;;;;;22.93;55.01;100595.91;10355717;28;97226;-76
2023/04/24 17:01:56;;;;;;;7.97;3.50;;;;;;;22.75;55.16;100597.47;10349970;28;96946;-77
2023/04/24 17:07:00;;;;;;;6.80;3.00;;;;;;;22.69;55.08;100584.56;10338853;28;97638;-77
2023/04/24 17:12:04;;;;;;;6.10;3.15;;;;;;;22.66;55.40;100582.13;10335311;28;96860;-77
2023/04/24 17:17:07;;;;;;;7.03;3.00;;;;;;;22.45;55.23;100582.09;10334230;28;99352;-77
2023/04/24 17:22:12;;;;;;;4.65;2.40;;;;;;;22.39;55.36;100579.91;10333771;28;97469;-76
2023/04/24 17:27:15;;;;;;;8.07;2.78;;;;;;;22.30;55.45;100602.13;10317099;28;98441;-77
2023/04/24 17:32:18;;;;;;;8.10;2.80;;;;;;;22.34;55.73;100596.41;10333500;28;100892;-78
2023/04/24 17:37:24;;;;;;;4.80;2.57;;;;;;;22.29;55.62;100595.94;10339985;28;97005;-77
2023/04/24 17:42:27;;;;;;;8.00;3.55;;;;;;;22.27;55.42;100597.03;10341229;28;97679;-76
2023/04/24 17:47:30;;;;;;;10.02;3.83;;;;;;;22.24;55.92;100598.16;10340639;28;96848;-76
2023/04/24 17:52:35;;;;;;;62.45;55.67;;;;;;;22.50;55.70;100604.88;10358485;28;97320;-76
2023/04/24 17:57:38;;;;;;;677.05;518.50;;;;;;;22.67;55.65;100597.25;10344670;28;96918;-76
2023/04/24 18:02:41;;;;;;;1149.75;838.20;;;;;;;22.50;56.46;100599.53;10340565;28;98410;-76
2023/04/24 18:07:46;;;;;;;1087.57;774.40;;;;;;;22.35;57.18;100598.09;10362375;28;96934;-78
2023/04/24 18:12:50;;;;;;;28.98;15.90;;;;;;;22.10;57.18;100613.63;10350790;28;96915;-77
2023/04/24 18:17:54;;;;;;;14.50;6.68;;;;;;;22.11;57.80;100613.50;10336247;28;97274;-77
2023/04/24 18:22:58;;;;;;;597.47;531.17;;;;;;;22.13;58.56;100599.97;10344494;28;96800;-77
2023/04/24 18:28:05;;;;;;;745.85;594.47;;;;;;;21.64;58.45;100588.81;10331906;28;97044;-76
2023/04/24 18:33:08;;;;;;;230.68;201.73;;;;;;;21.63;58.78;100589.78;10326958;28;97175;-76
2023/04/24 18:38:13;;;;;;;844.92;666.78;;;;;;;21.56;59.31;100601.94;10340117;28;96938;-76
2023/04/24 18:43:16;;;;;;;1759.75;999.90;;;;;;;21.64;59.31;100595.00;10345037;28;96784;-76
2023/04/24 18:48:20;;;;;;;519.17;424.93;;;;;;;21.31;59.56;100595.84;10337525;28;96539;-76
2023/04/24 18:53:24;;;;;;;353.48;288.63;;;;;;;21.31;59.83;100592.34;10333616;28;97779;-77
2023/04/24 18:58:28;;;;;;;772.22;606.38;;;;;;;21.32;59.84;100584.19;10338327;28;96796;-77
2023/04/24 19:03:31;;;;;;;69.80;54.45;;;;;;;21.13;60.08;100596.41;10341987;28;96674;-77
2023/04/24 19:08:37;;;;;;;77.30;67.80;;;;;;;20.97;61.15;100593.19;10347358;28;96996;-77
2023/04/24 19:13:40;;;;;;;41.47;30.30;;;;;;;20.86;61.45;100596.69;10346691;28;96963;-78
2023/04/24 19:18:44;;;;;;;32.00;23.08;;;;;;;20.63;61.72;100608.31;10348008;28;96699;-77
2023/04/24 19:23:49;;;;;;;27.63;18.02;;;;;;;20.64;61.87;100617.16;10347869;28;96966;-77
2023/04/24 19:28:56;;;;;;;22.15;14.90;;;;;;;20.36;62.33;100627.25;10346253;28;96845;-78
2023/04/24 19:33:59;;;;;;;25.25;17.38;;;;;;;20.44;62.76;100639.19;10342434;28;96953;-77
2023/04/24 19:39:04;;;;;;;21.02;14.68;;;;;;;20.33;63.41;100638.19;10345319;28;96775;-76
2023/04/24 19:44:07;;;;;;;14.43;9.52;;;;;;;20.21;63.76;100655.09;10340405;28;97035;-77
2023/04/24 19:49:12;;;;;;;18.58;10.27;;;;;;;20.06;64.01;100672.25;10343392;28;99824;-77
2023/04/24 19:54:18;;;;;;;17.80;10.55;;;;;;;19.92;64.82;100680.38;10343538;28;96777;-76
2023/04/24 19:59:22;;;;;;;14.93;8.60;;;;;;;19.81;64.94;100684.75;10342022;28;97576;-78
2023/04/24 20:04:25;;;;;;;14.40;8.35;;;;;;;19.68;65.51;100679.44;10343863;28;96864;-77
2023/04/24 20:09:30;;;;;;;13.03;6.40;;;;;;;19.60;65.91;100672.91;10345672;28;98209;-77
2023/04/24 20:14:34;;;;;;;14.02;7.25;;;;;;;19.67;65.77;100696.41;10343372;28;96726;-77
2023/04/24 20:19:39;;;;;;;17.73;10.77;;;;;;;19.67;65.65;100693.75;10329066;28;97801;-76
2023/04/24 20:24:44;;;;;;;15.15;9.10;;;;;;;19.38;66.56;100694.00;10333682;28;100070;-77
2023/04/24 20:29:48;;;;;;;12.82;7.13;;;;;;;19.45;66.34;100696.19;10338369;28;96884;-76
2023/04/24 20:34:51;;;;;;;12.40;7.65;;;;;;;19.37;66.74;100700.31;10353405;28;96515;-77
2023/04/24 20:39:57;;;;;;;16.45;8.75;;;;;;;19.29;67.17;100698.16;10346112;28;96766;-77
2023/04/24 20:45:00;;;;;;;18.83;7.82;;;;;;;19.25;67.22;100694.84;10323872;28;97503;-76
2023/04/24 20:50:05;;;;;;;17.15;9.38;;;;;;;19.18;67.48;100698.06;10333354;28;99008;-78
2023/04/24 20:55:10;;;;;;;;;;;;;;;18.96;68.64;100695.09;10329506;28;96993;-77
2023/04/24 21:00:14;;;;;;;14.77;9.05;;;;;;;18.84;68.43;100702.13;10339576;28;99156;-80
2023/04/24 21:17:47;;;;;;;17.17;9.68;;;;;;;18.93;69.03;100720.19;10480716;27;96943;-84
2023/04/24 21:22:57;;;;;;;14.35;8.80;;;;;;;18.70;69.25;100698.66;10483055;27;98532;-84
2023/04/24 21:28:04;;;;;;;14.52;8.15;;;;;;;18.64;69.68;100696.41;10498830;27;97358;-84
2023/04/24 21:33:08;;;;;;;15.83;8.67;;;;;;;18.57;69.68;100695.09;10490437;27;97007;-83
2023/04/24 21:38:18;;;;;;;15.70;8.48;;;;;;;18.47;69.88;100691.31;10483692;27;96799;-82
2023/04/24 21:43:24;;;;;;;16.13;8.65;;;;;;;18.38;70.13;100694.53;10479233;27;96943;-82
2023/04/24 21:48:40;;;;;;;17.55;8.52;;;;;;;18.16;70.93;100687.91;10479146;27;96782;-83
2023/04/24 21:53:43;;;;;;;;;;;;;;;18.12;71.33;100683.72;10471501;27;96812;-79
2023/04/24 21:58:47;;;;;;;18.17;8.07;;;;;;;18.00;70.94;100704.97;10477723;27;97040;-80
2023/04/24 22:03:51;;;;;;;17.90;9.43;;;;;;;17.96;71.33;100701.66;10494407;27;96763;-78
2023/04/24 22:08:56;;;;;;;18.63;8.70;;;;;;;17.85;71.43;100706.78;10493830;27;96854;-82
2023/04/24 22:13:59;;;;;;;15.98;8.75;;;;;;;18.02;71.15;100700.41;10489235;27;97114;-82
2023/04/24 22:19:04;;;;;;;15.98;8.32;;;;;;;18.06;71.38;100694.78;10464779;27;97513;-75
2023/04/24 22:24:07;;;;;;;14.02;7.13;;;;;;;17.99;71.64;100693.47;10471010;27;96886;-75
2023/04/24 22:29:11;;;;;;;15.88;8.10;;;;;;;18.04;71.40;100680.72;10451795;27;96913;-75
2023/04/24 22:34:17;;;;;;;17.17;7.77;;;;;;;18.02;71.93;100682.63;10445655;27;96858;-75
2023/04/24 22:39:20;;;;;;;12.02;7.75;;;;;;;17.94;72.15;100678.72;10465586;27;97365;-75
2023/04/24 22:44:23;;;;;;;17.60;7.95;;;;;;;17.99;71.83;100672.16;10434673;27;97243;-75
2023/04/24 22:49:28;;;;;;;15.63;8.00;;;;;;;17.84;72.84;100666.94;10452734;27;96754;-75
2023/04/24 22:54:33;;;;;;;18.30;8.27;;;;;;;17.89;72.63;100679.03;10454310;27;97070;-75
2023/04/24 22:59:36;;;;;;;15.73;7.95;;;;;;;17.95;71.96;100680.47;10451426;27;96906;-75
2023/04/24 23:04:41;;;;;;;13.57;7.22;;;;;;;18.09;72.17;100683.94;10437196;27;96769;-75
2023/04/24 23:09:44;;;;;;;;;;;;;;;17.81;72.49;100675.97;10460486;27;96954;-75
2023/04/24 23:14:47;;;;;;;14.32;7.22;;;;;;;17.73;72.97;100666.75;10462585;27;96787;-75
2023/04/24 23:19:52;;;;;;;13.38;6.78;;;;;;;17.74;72.51;100661.38;10444150;27;96747;-76
2023/04/24 23:24:55;;;;;;;15.02;7.80;;;;;;;17.61;72.96;100649.75;10460020;27;97458;-75
2023/04/24 23:29:58;;;;;;;13.75;8.85;;;;;;;17.52;73.54;100647.66;10449149;27;97321;-76
2023/04/24 23:35:03;;;;;;;13.93;8.32;;;;;;;17.65;73.23;100656.59;10465995;27;96876;-75
2023/04/24 23:40:08;;;;;;;;;;;;;;;17.54;73.62;100644.88;10443394;27;97099;-75
2023/04/24 23:45:12;;;;;;;16.88;8.77;;;;;;;17.46;73.26;100644.47;10462363;27;97435;-75
2023/04/24 23:50:16;;;;;;;13.98;8.52;;;;;;;17.39;73.29;100632.50;10449506;27;98804;-75
2023/04/24 23:55:20;;;;;;;;;;;;;;;17.26;74.03;100626.25;10447519;27;98485;-75
